Time;durP1;ratioP1;P1;durP2;ratioP2;P2;SDS_P1;SDS_P2;PMS_P1;PMS_P2;Temp;Humidity;BMP_temperature;BMP_pressure;BME280_temperature;BME280_humidity;BME280_pressure;Samples;Min_cycle;Max_cycle;Signal;HPM_P1;HPM_P2
2021/04/17 00:02:11;;;;;;;9.80;2.45;;;4.30;74.20;;;;;;4956105;29;20459;-85
2021/04/17 00:04:39;;;;;;;8.80;3.08;;;4.30;74.30;;;;;;4955604;29;20479;-84
2021/04/17 00:07:06;;;;;;;7.75;3.20;;;4.20;74.70;;;;;;4955300;29;20035;-84
2021/04/17 00:09:32;;;;;;;9.00;3.38;;;4.20;74.70;;;;;;4956991;28;20081;-85
2021/04/17 00:12:01;;;;;;;9.00;3.47;;;4.20;75.20;;;;;;4955761;28;20038;-84
2021/04/17 00:14:29;;;;;;;10.10;3.53;;;4.20;75.50;;;;;;4946861;29;20075;-85
2021/04/17 00:16:55;;;;;;;7.65;3.13;;;4.20;75.80;;;;;;4951854;29;20058;-84
2021/04/17 00:19:22;;;;;;;11.88;3.75;;;4.10;75.90;;;;;;4955942;29;20475;-85
2021/04/17 00:21:48;;;;;;;9.65;3.42;;;4.10;75.90;;;;;;4955928;28;20085;-84
2021/04/17 00:24:14;;;;;;;9.13;3.05;;;4.00;76.10;;;;;;4954908;29;20027;-85
2021/04/17 00:26:40;;;;;;;10.15;4.25;;;4.00;76.30;;;;;;4955584;29;20042;-85
2021/04/17 00:29:06;;;;;;;8.10;3.10;;;4.00;76.50;;;;;;4956302;28;20031;-85
2021/04/17 00:31:35;;;;;;;9.07;3.33;;;4.00;76.80;;;;;;4954060;29;20399;-85
2021/04/17 00:34:00;;;;;;;5.88;2.83;;;4.00;77.00;;;;;;4955649;29;20023;-85
2021/04/17 00:36:27;;;;;;;9.57;3.75;;;4.00;77.30;;;;;;4955590;29;20399;-85
2021/04/17 00:38:52;;;;;;;8.02;3.38;;;4.00;77.40;;;;;;4954451;29;20090;-85
2021/04/17 00:41:18;;;;;;;11.57;3.78;;;4.00;77.70;;;;;;4955798;29;20498;-85
2021/04/17 00:43:44;;;;;;;9.00;3.65;;;3.90;77.70;;;;;;4953871;29;20023;-85
2021/04/17 00:46:12;;;;;;;6.82;3.35;;;3.90;77.90;;;;;;4954199;29;20497;-84
2021/04/17 00:48:42;;;;;;;7.30;3.10;;;3.90;78.30;;;;;;4955237;28;20063;-84
2021/04/17 00:51:09;;;;;;;10.30;3.45;;;3.80;78.30;;;;;;4952412;29;20046;-85
2021/04/17 00:53:34;;;;;;;10.50;3.75;;;3.80;78.40;;;;;;4963027;28;20431;-85
2021/04/17 00:56:04;;;;;;;12.38;4.05;;;3.80;78.50;;;;;;4958729;28;20050;-85
2021/04/17 00:58:29;;;;;;;7.38;3.40;;;3.80;78.60;;;;;;4956036;29;20495;-84
2021/04/17 01:00:55;;;;;;;8.07;3.38;;;3.70;78.80;;;;;;4955671;29;20039;-84
2021/04/17 01:03:34;;;;;;;10.50;4.78;;;3.70;78.90;;;;;;4952018;29;20035;-85
2021/04/17 01:06:27;;;;;;;10.30;3.63;;;3.60;79.20;;;;;;4949831;29;20196;-85
2021/04/17 01:09:01;;;;;;;8.40;3.08;;;3.60;79.30;;;;;;4951333;29;20031;-84
2021/04/17 01:11:35;;;;;;;9.20;3.65;;;3.50;79.40;;;;;;4954560;28;20038;-84
2021/04/17 01:14:01;;;;;;;10.00;3.42;;;3.50;79.90;;;;;;4954675;29;20054;-85
2021/04/17 01:16:27;;;;;;;8.20;3.35;;;3.50;80.10;;;;;;4954712;29;20031;-84
2021/04/17 01:18:54;;;;;;;11.40;4.15;;;3.40;80.00;;;;;;4945708;29;20030;-85
2021/04/17 01:21:21;;;;;;;7.65;3.60;;;3.40;80.20;;;;;;4952764;29;20023;-84
2021/04/17 01:23:53;;;;;;;9.27;3.47;;;3.30;80.30;;;;;;4945280;29;20050;-84
2021/04/17 01:26:21;;;;;;;9.67;3.50;;;3.30;80.60;;;;;;4954440;28;20240;-84
2021/04/17 01:28:50;;;;;;;12.07;4.47;;;3.20;80.80;;;;;;4954366;29;20309;-85
2021/04/17 01:31:17;;;;;;;7.75;3.50;;;3.20;81.10;;;;;;4952912;28;20063;-84
2021/04/17 01:33:50;;;;;;;10.02;3.78;;;3.10;81.10;;;;;;4954576;29;20114;-84
2021/04/17 01:36:17;;;;;;;10.43;4.32;;;3.10;81.50;;;;;;4954929;28;20067;-84
2021/04/17 01:38:52;;;;;;;7.95;3.90;;;3.10;81.50;;;;;;4954216;29;20054;-84
2021/04/17 01:41:34;;;;;;;10.00;3.63;;;3.10;81.90;;;;;;4955331;28;20386;-84
2021/04/17 01:44:03;;;;;;;8.60;3.85;;;3.00;82.00;;;;;;4953932;29;20031;-84
2021/04/17 01:46:33;;;;;;;16.13;4.38;;;3.00;82.00;;;;;;4953867;28;20118;-85
2021/04/17 01:49:04;;;;;;;11.00;3.67;;;3.00;82.60;;;;;;4953553;29;20035;-85
2021/04/17 01:51:32;;;;;;;10.40;4.65;;;3.00;82.50;;;;;;4955864;28;20054;-84
2021/04/17 01:54:01;;;;;;;11.70;3.60;;;2.90;82.60;;;;;;4953808;29;20038;-85
2021/04/17 01:56:28;;;;;;;10.82;4.07;;;2.90;82.80;;;;;;4948624;29;20027;-85
2021/04/17 01:58:58;;;;;;;12.82;4.13;;;2.90;82.90;;;;;;4952175;29;20027;-84
2021/04/17 02:01:24;;;;;;;9.95;3.70;;;2.90;83.20;;;;;;4954493;28;20058;-85
2021/04/17 02:03:49;;;;;;;9.55;3.72;;;2.90;83.10;;;;;;4954869;28;20438;-84
2021/04/17 02:06:15;;;;;;;9.30;4.13;;;2.80;83.20;;;;;;4948031;29;20402;-84
2021/04/17 02:08:41;;;;;;;11.68;3.55;;;2.80;83.30;;;;;;4952573;29;20023;-84
2021/04/17 02:11:07;;;;;;;10.68;4.07;;;2.80;83.50;;;;;;4953019;28;20491;-85
2021/04/17 02:13:35;;;;;;;8.10;3.55;;;2.70;83.70;;;;;;4945494;29;20083;-85
2021/04/17 02:16:36;;;;;;;8.70;3.95;;;2.70;83.80;;;;;;4953548;29;20558;-84
2021/04/17 02:19:07;;;;;;;9.20;4.13;;;2.70;84.00;;;;;;4954103;29;20156;-84
2021/04/17 02:21:37;;;;;;;10.75;3.72;;;2.70;84.50;;;;;;4946181;29;20031;-83
2021/04/17 02:24:05;;;;;;;7.10;3.35;;;2.70;84.40;;;;;;4949249;29;20024;-84
2021/04/17 02:26:31;;;;;;;14.63;3.63;;;2.70;84.50;;;;;;4953202;29;20039;-86
2021/04/17 02:28:57;;;;;;;9.32;3.72;;;2.70;84.50;;;;;;4952807;28;20031;-84
2021/04/17 02:31:27;;;;;;;12.65;3.72;;;2.60;84.70;;;;;;4953663;29;20023;-84
2021/04/17 02:33:53;;;;;;;13.30;4.20;;;2.60;84.80;;;;;;4954304;28;20030;-85
2021/04/17 02:36:19;;;;;;;9.45;3.72;;;2.60;84.90;;;;;;4953539;29;20040;-84
2021/04/17 02:38:45;;;;;;;11.43;3.95;;;2.60;85.10;;;;;;4953454;29;20114;-84
2021/04/17 02:41:13;;;;;;;10.75;3.63;;;2.50;85.30;;;;;;4954944;29;20054;-84
2021/04/17 02:43:41;;;;;;;12.93;3.90;;;2.60;85.60;;;;;;4953931;29;20032;-85
2021/04/17 02:46:08;;;;;;;8.38;3.30;;;2.60;85.60;;;;;;4948186;29;20043;-84
2021/04/17 02:48:33;;;;;;;9.95;4.15;;;2.60;85.80;;;;;;4944579;29;20035;-84
2021/04/17 02:50:59;;;;;;;12.07;3.95;;;2.60;86.30;;;;;;4952910;29;20110;-85
2021/04/17 02:53:24;;;;;;;7.80;3.47;;;2.60;86.20;;;;;;4954859;29;20035;-84
2021/04/17 02:55:50;;;;;;;9.00;3.28;;;2.60;86.00;;;;;;4953531;29;20030;-85
2021/04/17 02:58:15;;;;;;;9.18;3.75;;;2.70;86.90;;;;;;4950761;29;20027;-84
2021/04/17 03:00:41;;;;;;;10.05;3.83;;;2.70;86.20;;;;;;4946484;29;20027;-85
2021/04/17 03:03:07;;;;;;;7.75;3.33;;;2.70;86.50;;;;;;4943015;29;20044;-85
2021/04/17 03:05:32;;;;;;;9.32;3.85;;;2.70;86.90;;;;;;4948177;29;20465;-85
2021/04/17 03:07:58;;;;;;;8.95;3.92;;;2.70;86.80;;;;;;4949293;29;20561;-84
2021/04/17 03:10:23;;;;;;;9.20;3.63;;;2.70;86.70;;;;;;4952774;29;20086;-84
2021/04/17 03:12:49;;;;;;;8.48;4.57;;;2.70;87.00;;;;;;4955480;28;20028;-84
2021/04/17 03:15:15;;;;;;;9.40;3.20;;;2.80;87.10;;;;;;4955708;29;20038;-84
2021/04/17 03:17:40;;;;;;;11.63;3.67;;;2.70;87.00;;;;;;4956506;29;20024;-83
2021/04/17 03:20:08;;;;;;;7.65;3.00;;;2.70;87.00;;;;;;4955891;29;20403;-85
2021/04/17 03:22:34;;;;;;;7.43;3.28;;;2.70;87.20;;;;;;4956840;29;20483;-84
2021/04/17 03:25:02;;;;;;;8.98;2.85;;;2.70;87.40;;;;;;4956817;29;20031;-86
2021/04/17 03:27:28;;;;;;;8.75;3.42;;;2.60;87.30;;;;;;4957397;28;20035;-84
2021/04/17 03:29:54;;;;;;;7.35;3.30;;;2.60;87.50;;;;;;4956001;29;20102;-84
2021/04/17 03:32:19;;;;;;;13.75;3.63;;;2.60;87.50;;;;;;4954898;29;20126;-84
2021/04/17 03:34:45;;;;;;;10.23;3.67;;;2.60;87.70;;;;;;4957577;29;20034;-84
2021/04/17 03:37:10;;;;;;;11.20;3.70;;;2.60;87.70;;;;;;4955402;29;20024;-84
2021/04/17 03:39:36;;;;;;;6.28;2.90;;;2.50;87.80;;;;;;4956998;28;20107;-84
2021/04/17 03:42:01;;;;;;;9.73;3.60;;;2.50;87.80;;;;;;4956734;29;20420;-84
2021/04/17 03:44:27;;;;;;;7.75;3.20;;;2.50;87.80;;;;;;4956551;29;20082;-84
2021/04/17 03:46:52;;;;;;;7.57;2.97;;;2.40;88.00;;;;;;4957044;28;20499;-84
2021/04/17 03:49:18;;;;;;;12.73;3.60;;;2.50;88.10;;;;;;4955031;29;20023;-84
2021/04/17 03:51:43;;;;;;;7.43;3.40;;;2.50;88.30;;;;;;4954985;29;20110;-84
2021/04/17 03:54:09;;;;;;;8.18;3.17;;;2.40;88.50;;;;;;4956141;29;20115;-84
2021/04/17 03:56:34;;;;;;;8.27;3.25;;;2.50;88.80;;;;;;4950909;28;20031;-84
2021/04/17 03:59:00;;;;;;;10.75;3.78;;;2.50;88.60;;;;;;4957556;29;20440;-84
2021/04/17 04:01:25;;;;;;;8.85;4.10;;;2.50;88.50;;;;;;4955506;28;20051;-85
2021/04/17 04:03:51;;;;;;;12.05;3.97;;;2.50;88.70;;;;;;4955980;29;20031;-85
2021/04/17 04:06:18;;;;;;;8.73;3.33;;;2.50;88.70;;;;;;4954435;29;20037;-85
2021/04/17 04:08:44;;;;;;;14.95;4.15;;;2.50;88.80;;;;;;4956213;28;20599;-85
2021/04/17 04:11:09;;;;;;;12.65;3.90;;;2.50;88.80;;;;;;4957188;29;20035;-85
2021/04/17 04:13:35;;;;;;;9.43;3.92;;;2.50;88.90;;;;;;4950561;29;20031;-85
2021/04/17 04:16:01;;;;;;;14.52;3.75;;;2.50;89.00;;;;;;4956760;28;20023;-84
2021/04/17 04:18:26;;;;;;;7.95;3.05;;;2.40;89.00;;;;;;4953536;28;20368;-85
2021/04/17 04:20:52;;;;;;;12.35;4.07;;;2.40;89.10;;;;;;4951096;28;20551;-85
2021/04/17 04:23:17;;;;;;;9.68;3.97;;;2.40;89.30;;;;;;4949254;28;20023;-85
2021/04/17 04:25:43;;;;;;;12.27;4.60;;;2.40;89.40;;;;;;4954124;29;20082;-85
2021/04/17 04:28:08;;;;;;;10.55;3.42;;;2.30;89.80;;;;;;4951608;29;20066;-85
2021/04/17 04:30:34;;;;;;;11.05;3.63;;;2.30;89.90;;;;;;4952913;28;20030;-85
2021/04/17 04:32:59;;;;;;;10.93;4.10;;;2.30;90.00;;;;;;4953919;29;20054;-85
2021/04/17 04:35:25;;;;;;;10.23;3.78;;;2.30;90.00;;;;;;4952417;29;20062;-85
2021/04/17 04:37:50;;;;;;;8.27;3.70;;;2.30;90.00;;;;;;4955761;29;20102;-85
2021/04/17 04:40:16;;;;;;;7.22;3.53;;;2.30;90.00;;;;;;4952490;28;20059;-86
2021/04/17 04:42:42;;;;;;;9.85;3.40;;;2.30;90.00;;;;;;4955141;29;20146;-84
2021/04/17 04:45:09;;;;;;;9.30;3.33;;;2.30;90.10;;;;;;4954682;29;20034;-85
2021/04/17 04:47:35;;;;;;;10.65;4.15;;;2.30;90.20;;;;;;4953335;28;20046;-85
2021/04/17 04:50:02;;;;;;;10.05;3.65;;;2.30;90.30;;;;;;4954777;29;20122;-85
2021/04/17 04:52:27;;;;;;;11.40;3.85;;;2.30;90.30;;;;;;4955386;29;20078;-85
2021/04/17 04:54:53;;;;;;;9.05;3.35;;;2.30;90.30;;;;;;4954282;28;20027;-85
2021/04/17 04:57:18;;;;;;;13.85;3.92;;;2.30;90.30;;;;;;4952232;28;20031;-85
2021/04/17 04:59:44;;;;;;;16.15;3.95;;;2.30;90.30;;;;;;4955413;28;20031;-85
2021/04/17 05:02:09;;;;;;;9.23;4.03;;;2.30;90.40;;;;;;4947655;29;20468;-86
2021/04/17 05:04:35;;;;;;;7.85;3.88;;;2.30;90.40;;;;;;4955347;29;20659;-85
2021/04/17 05:07:00;;;;;;;12.25;4.10;;;2.30;90.40;;;;;;4955929;29;20039;-86
2021/04/17 05:09:26;;;;;;;18.08;4.53;;;2.30;90.40;;;;;;4954361;29;20090;-86
2021/04/17 05:11:51;;;;;;;14.55;4.53;;;2.40;90.50;;;;;;4953434;29;20054;-86
2021/04/17 05:14:17;;;;;;;10.50;4.00;;;2.40;90.50;;;;;;4955243;29;20035;-86
2021/04/17 05:16:42;;;;;;;8.93;3.75;;;2.40;90.60;;;;;;4953584;29;20031;-86
2021/04/17 05:19:08;;;;;;;11.32;4.20;;;2.40;90.60;;;;;;4945161;28;20114;-85
2021/04/17 05:21:34;;;;;;;14.07;4.28;;;2.40;90.60;;;;;;4952184;28;20497;-86
2021/04/17 05:24:00;;;;;;;14.35;4.88;;;2.40;90.70;;;;;;4944342;28;20142;-85
2021/04/17 05:26:26;;;;;;;12.50;3.92;;;2.40;90.70;;;;;;4951075;28;20111;-86
2021/04/17 05:28:51;;;;;;;15.45;4.60;;;2.40;90.70;;;;;;4944548;29;20114;-84
2021/04/17 05:31:17;;;;;;;12.52;3.90;;;2.50;90.80;;;;;;4953526;29;20070;-83
2021/04/17 05:33:42;;;;;;;16.23;5.30;;;2.50;90.80;;;;;;4953266;29;20023;-86
2021/04/17 05:36:08;;;;;;;7.40;3.65;;;2.50;90.90;;;;;;4949660;28;20079;-85
2021/04/17 05:38:34;;;;;;;13.05;3.78;;;2.60;90.80;;;;;;4944050;28;20403;-85
2021/04/17 05:40:59;;;;;;;11.38;4.43;;;2.60;90.90;;;;;;4945149;28;20090;-85
2021/04/17 05:43:25;;;;;;;12.88;4.00;;;2.60;90.80;;;;;;4953486;29;20027;-86
2021/04/17 05:45:51;;;;;;;11.45;4.57;;;2.70;90.80;;;;;;4954802;29;20035;-85
2021/04/17 05:48:16;;;;;;;7.38;3.80;;;2.80;90.80;;;;;;4954604;29;20035;-86
2021/04/17 05:50:42;;;;;;;9.70;4.43;;;2.80;90.80;;;;;;4954830;29;20031;-86
2021/04/17 05:53:07;;;;;;;12.25;4.40;;;2.90;90.80;;;;;;4954724;29;20027;-86
2021/04/17 05:55:33;;;;;;;11.63;4.53;;;2.90;90.80;;;;;;4955690;28;20062;-85
2021/04/17 05:57:58;;;;;;;9.27;4.15;;;3.00;90.80;;;;;;4954586;29;20539;-85
2021/04/17 06:00:24;;;;;;;11.15;3.72;;;3.10;90.80;;;;;;4953224;29;20031;-84
2021/04/17 06:02:54;;;;;;;8.85;3.63;;;3.20;90.80;;;;;;4951344;28;20043;-85
2021/04/17 06:05:20;;;;;;;10.75;4.38;;;3.30;90.70;;;;;;4953653;29;20559;-84
2021/04/17 06:07:46;;;;;;;8.95;3.45;;;3.40;90.70;;;;;;4954958;28;20118;-84
2021/04/17 06:10:11;;;;;;;11.32;4.20;;;3.50;90.70;;;;;;4953940;28;20127;-84
2021/04/17 06:12:38;;;;;;;9.20;4.20;;;3.60;90.60;;;;;;4952943;28;20122;-85
2021/04/17 06:15:04;;;;;;;11.45;4.22;;;3.70;90.70;;;;;;4949794;29;20127;-84
2021/04/17 06:17:29;;;;;;;10.63;4.47;;;3.80;90.60;;;;;;4952396;29;20038;-85
2021/04/17 06:19:55;;;;;;;10.35;4.32;;;3.90;90.60;;;;;;4954433;28;20114;-84
2021/04/17 06:22:21;;;;;;;15.48;4.63;;;4.00;90.50;;;;;;4942146;29;20114;-84
2021/04/17 06:24:46;;;;;;;11.82;4.75;;;4.10;90.60;;;;;;4948207;29;20024;-84
2021/04/17 06:27:12;;;;;;;10.75;4.55;;;4.20;90.50;;;;;;4954492;28;20043;-85
2021/04/17 06:29:38;;;;;;;9.55;4.18;;;4.30;90.50;;;;;;4955380;29;20077;-85
2021/04/17 06:32:04;;;;;;;8.90;3.67;;;4.40;90.40;;;;;;4953750;29;20027;-85
2021/04/17 06:34:29;;;;;;;14.55;5.07;;;4.50;90.40;;;;;;4955256;28;20483;-85
2021/04/17 06:36:55;;;;;;;10.55;4.72;;;4.50;90.40;;;;;;4955122;29;20031;-85
2021/04/17 06:39:20;;;;;;;13.10;3.85;;;4.60;90.40;;;;;;4950769;28;20030;-86
2021/04/17 06:41:48;;;;;;;11.80;4.50;;;4.80;90.30;;;;;;4954969;29;20035;-85
2021/04/17 06:44:15;;;;;;;11.25;3.47;;;4.90;90.20;;;;;;4949798;29;20083;-85
2021/04/17 06:46:41;;;;;;;8.80;4.45;;;5.00;90.20;;;;;;4953720;28;20039;-86
2021/04/17 06:49:07;;;;;;;8.32;3.95;;;5.20;90.10;;;;;;4950411;29;20431;-85
2021/04/17 06:51:37;;;;;;;9.15;3.50;;;5.20;90.00;;;;;;4959861;28;20023;-85
2021/04/17 06:54:05;;;;;;;8.20;3.15;;;5.40;90.00;;;;;;4957384;28;20023;-85
2021/04/17 06:56:31;;;;;;;6.32;2.70;;;5.50;89.80;;;;;;4957129;28;20025;-84
2021/04/17 06:58:56;;;;;;;10.07;2.95;;;5.60;89.50;;;;;;4959070;29;20031;-86
2021/04/17 07:01:22;;;;;;;8.60;3.15;;;5.70;89.70;;;;;;4956315;29;20050;-85
2021/04/17 07:03:48;;;;;;;4.55;2.38;;;5.80;88.80;;;;;;4951497;28;20024;-86
2021/04/17 07:06:14;;;;;;;7.75;2.45;;;5.90;88.60;;;;;;4952960;28;20024;-85
2021/04/17 07:08:42;;;;;;;9.05;2.67;;;6.00;88.30;;;;;;4957994;29;20027;-85
2021/04/17 07:11:08;;;;;;;7.28;3.33;;;6.20;88.30;;;;;;4957865;28;20026;-85
2021/04/17 07:13:34;;;;;;;7.25;2.47;;;6.30;87.80;;;;;;4956051;29;20031;-86
2021/04/17 07:16:08;;;;;;;11.32;3.03;;;6.40;87.50;;;;;;4956887;29;20082;-86
2021/04/17 07:18:35;;;;;;;6.35;2.60;;;6.40;87.20;;;;;;4953367;28;20035;-86
2021/04/17 07:21:13;;;;;;;10.15;2.92;;;6.50;86.70;;;;;;4956269;29;20512;-86
2021/04/17 07:23:43;;;;;;;4.22;2.30;;;6.70;86.60;;;;;;4956986;29;20110;-86
2021/04/17 07:26:30;;;;;;;5.35;2.75;;;6.70;85.90;;;;;;4956918;29;20039;-85
2021/04/17 07:29:13;;;;;;;8.15;2.63;;;6.90;85.40;;;;;;4956327;29;20031;-85
2021/04/17 07:31:46;;;;;;;;;;;6.90;84.90;;;;;;4957857;28;20387;-86
2021/04/17 07:34:17;;;;;;;6.55;1.65;;;7.00;85.20;;;;;;4956728;29;20020;-85
2021/04/17 07:36:56;;;;;;;7.45;1.60;;;7.10;83.70;;;;;;4951684;29;20035;-85
2021/04/17 07:39:42;;;;;;;7.53;1.38;;;7.20;83.30;;;;;;4955204;29;20373;-84
2021/04/17 07:42:10;;;;;;;5.32;1.67;;;7.30;82.60;;;;;;4958645;28;20122;-85
2021/04/17 07:44:42;;;;;;;4.80;1.88;;;7.40;81.60;;;;;;4957282;29;20770;-85
2021/04/17 07:47:09;;;;;;;8.35;1.80;;;7.50;80.80;;;;;;4952475;28;20079;-85
2021/04/17 07:49:36;;;;;;;5.80;1.73;;;7.50;80.30;;;;;;4956844;28;20539;-85
2021/04/17 07:52:15;;;;;;;7.63;1.83;;;7.60;80.50;;;;;;4957534;28;20038;-85
2021/04/17 07:55:05;;;;;;;5.35;1.50;;;7.80;80.30;;;;;;4941599;29;20042;-85
2021/04/17 07:57:32;;;;;;;5.07;1.35;;;8.00;79.20;;;;;;4954020;28;20035;-85
2021/04/17 07:59:58;;;;;;;5.65;1.02;;;8.10;78.90;;;;;;4955339;29;20367;-85
2021/04/17 08:02:25;;;;;;;8.93;1.60;;;8.20;78.70;;;;;;4953587;28;20055;-89
2021/04/17 08:04:52;;;;;;;4.72;1.17;;;8.30;77.30;;;;;;4956819;28;20025;-84
2021/04/17 08:07:18;;;;;;;6.78;1.20;;;8.40;77.20;;;;;;4955046;29;20043;-85
2021/04/17 08:09:45;;;;;;;6.63;1.30;;;8.50;76.50;;;;;;4953599;28;20034;-84
2021/04/17 08:12:14;;;;;;;5.53;1.40;;;8.60;76.20;;;;;;4956368;28;20522;-84
2021/04/17 08:14:39;;;;;;;5.32;1.20;;;8.70;74.30;;;;;;4953438;29;20106;-85
2021/04/17 08:17:05;;;;;;;8.57;1.00;;;8.80;73.50;;;;;;4957137;29;20115;-84
2021/04/17 08:19:30;;;;;;;4.18;0.73;;;8.80;73.00;;;;;;4954916;28;20387;-85
2021/04/17 08:21:56;;;;;;;5.05;1.50;;;8.90;71.20;;;;;;4955964;29;20046;-85
2021/04/17 08:24:28;;;;;;;5.97;0.90;;;8.90;70.60;;;;;;4954317;29;20019;-86
2021/04/17 08:26:56;;;;;;;5.40;1.00;;;9.00;68.00;;;;;;4942933;29;20102;-86
2021/04/17 08:29:41;;;;;;;4.90;0.88;;;8.90;68.30;;;;;;4955928;28;20039;-85
2021/04/17 08:32:20;;;;;;;3.47;1.10;;;9.10;69.00;;;;;;4956808;29;20036;-85
2021/04/17 08:35:09;;;;;;;5.72;0.95;;;9.20;68.20;;;;;;4951279;28;20027;-85
2021/04/17 08:37:55;;;;;;;5.28;1.13;;;9.40;67.90;;;;;;4952904;29;20027;-85
2021/04/17 08:40:36;;;;;;;8.02;1.20;;;9.40;67.50;;;;;;4950307;29;20115;-85
2021/04/17 08:43:25;;;;;;;7.53;0.95;;;9.60;67.80;;;;;;4945121;29;20075;-85
2021/04/17 08:46:14;;;;;;;4.25;0.80;;;9.70;66.80;;;;;;4954668;29;20384;-85
2021/04/17 08:48:53;;;;;;;5.60;0.85;;;9.80;65.60;;;;;;4954968;29;20075;-85
2021/04/17 08:51:26;;;;;;;6.15;0.80;;;9.80;65.10;;;;;;4954739;29;20066;-85
2021/04/17 08:54:12;;;;;;;3.53;0.60;;;10.00;64.30;;;;;;4955097;29;20023;-85
2021/04/17 08:57:03;;;;;;;7.82;1.00;;;10.00;63.00;;;;;;4955147;28;20043;-85
2021/04/17 08:59:35;;;;;;;6.32;0.70;;;10.00;63.00;;;;;;4954100;29;20054;-85
2021/04/17 09:02:13;;;;;;;6.30;0.82;;;10.10;62.60;;;;;;4950896;29;20035;-85
2021/04/17 09:05:05;;;;;;;3.03;0.60;;;10.10;62.10;;;;;;4947618;28;20034;-84
2021/04/17 09:07:32;;;;;;;5.82;0.80;;;10.10;61.20;;;;;;4955175;29;20086;-84
2021/04/17 09:10:27;;;;;;;3.30;0.60;;;10.20;61.90;;;;;;4955564;28;20487;-85
2021/04/17 09:13:14;;;;;;;2.50;0.68;;;10.30;61.40;;;;;;4956266;28;20052;-86
2021/04/17 09:15:59;;;;;;;2.90;0.50;;;10.40;59.50;;;;;;4954655;28;20019;-84
2021/04/17 09:18:34;;;;;;;2.75;0.50;;;10.50;60.00;;;;;;4956432;29;20023;-84
2021/04/17 09:21:15;;;;;;;4.90;0.60;;;10.60;59.50;;;;;;4955819;29;20035;-84
2021/04/17 09:23:46;;;;;;;4.40;0.60;;;10.70;59.60;;;;;;4955489;29;20027;-85
2021/04/17 09:26:33;;;;;;;4.43;0.60;;;10.80;58.90;;;;;;4951564;28;20031;-84
2021/04/17 09:29:07;;;;;;;3.42;0.57;;;10.80;58.10;;;;;;4952921;29;20070;-84
2021/04/17 09:31:38;;;;;;;4.25;0.60;;;10.80;58.30;;;;;;4939306;29;20107;-85
2021/04/17 09:34:06;;;;;;;4.93;0.63;;;10.90;57.20;;;;;;4957545;29;20019;-86
2021/04/17 09:36:32;;;;;;;5.22;0.80;;;10.90;58.10;;;;;;4951288;29;20040;-85
2021/04/17 09:38:59;;;;;;;5.45;0.50;;;11.00;57.20;;;;;;4955396;29;20027;-85
2021/04/17 09:41:50;;;;;;;5.85;0.85;;;11.00;57.40;;;;;;4955794;29;20390;-86
2021/04/17 09:44:16;;;;;;;1.70;0.60;;;11.10;56.50;;;;;;4948614;28;20027;-85
2021/04/17 09:46:41;;;;;;;3.53;0.60;;;11.10;57.40;;;;;;4949832;29;20031;-85
2021/04/17 09:49:07;;;;;;;4.25;1.33;;;11.10;57.70;;;;;;4953692;29;20027;-85
2021/04/17 09:51:32;;;;;;;4.53;0.60;;;11.20;58.50;;;;;;4952182;29;20023;-85
2021/04/17 09:54:06;;;;;;;2.53;0.70;;;11.30;56.90;;;;;;4952322;29;20031;-85
2021/04/17 09:56:43;;;;;;;3.75;0.55;;;11.30;56.00;;;;;;4954205;28;20094;-85
2021/04/17 09:59:12;;;;;;;4.57;0.85;;;11.20;56.50;;;;;;4951687;29;20502;-85
2021/04/17 10:01:53;;;;;;;3.40;0.60;;;11.20;56.80;;;;;;4954495;28;20582;-85
2021/04/17 10:04:19;;;;;;;4.28;0.75;;;11.30;57.50;;;;;;4952697;28;20031;-86
2021/04/17 10:06:57;;;;;;;6.55;1.13;;;11.50;57.30;;;;;;4953530;29;20511;-85
2021/04/17 10:09:23;;;;;;;6.10;0.98;;;11.70;56.80;;;;;;4939235;29;20031;-85
2021/04/17 10:11:50;;;;;;;4.80;0.80;;;11.80;56.70;;;;;;4951095;28;20074;-85
2021/04/17 10:14:17;;;;;;;10.10;1.50;;;12.00;55.00;;;;;;4950638;29;20125;-85
2021/04/17 10:16:45;;;;;;;5.25;0.90;;;12.00;55.00;;;;;;4950451;29;20027;-85
2021/04/17 10:19:13;;;;;;;3.58;0.70;;;12.00;54.70;;;;;;4952140;29;20460;-85
2021/04/17 10:21:40;;;;;;;5.70;0.70;;;11.90;55.40;;;;;;4955119;28;20034;-86
2021/04/17 10:24:23;;;;;;;5.15;1.50;;;11.90;55.70;;;;;;4954125;29;20035;-85
2021/04/17 10:27:06;;;;;;;3.53;0.80;;;12.00;55.20;;;;;;4940998;28;20040;-86
2021/04/17 10:29:44;;;;;;;4.70;0.80;;;12.10;55.30;;;;;;4955368;29;20033;-85
2021/04/17 10:32:17;;;;;;;3.85;0.90;;;12.30;53.80;;;;;;4958125;29;20029;-86
2021/04/17 10:34:51;;;;;;;2.85;0.90;;;12.50;53.40;;;;;;4956335;29;20027;-86
2021/04/17 10:37:44;;;;;;;3.88;1.08;;;12.60;52.10;;;;;;4956694;29;20034;-88
2021/04/17 10:40:28;;;;;;;4.90;0.90;;;12.60;50.80;;;;;;4953991;28;20035;-85
2021/04/17 10:42:58;;;;;;;6.07;1.67;;;12.70;51.10;;;;;;4956645;29;20038;-85
2021/04/17 10:45:24;;;;;;;3.25;0.70;;;12.80;51.80;;;;;;4952486;28;20387;-85
2021/04/17 10:48:00;;;;;;;3.60;0.85;;;13.00;51.80;;;;;;4958041;29;20142;-86
2021/04/17 10:50:28;;;;;;;6.68;0.88;;;13.20;50.40;;;;;;4948018;29;20031;-86
2021/04/17 10:53:01;;;;;;;5.75;1.25;;;13.10;49.60;;;;;;4954863;29;20043;-86
2021/04/17 10:55:48;;;;;;;3.50;0.90;;;13.00;49.20;;;;;;4945651;29;20027;-86
2021/04/17 10:58:25;;;;;;;4.57;1.30;;;13.20;50.50;;;;;;4955239;29;20110;-86
2021/04/17 11:01:24;;;;;;;5.05;0.77;;;13.30;49.60;;;;;;4936450;28;20054;-86
2021/04/17 11:03:52;;;;;;;2.72;0.77;;;13.20;49.70;;;;;;4951290;28;20043;-86
2021/04/17 11:06:23;;;;;;;4.05;0.80;;;13.10;50.00;;;;;;4964681;28;20082;-86
2021/04/17 11:09:09;;;;;;;3.08;0.93;;;12.90;49.70;;;;;;4954062;28;20038;-86
2021/04/17 11:11:35;;;;;;;5.95;1.00;;;12.70;49.80;;;;;;4953519;29;20028;-86
2021/04/17 11:14:04;;;;;;;4.35;0.70;;;12.60;50.20;;;;;;4971800;28;20095;-91
2021/04/17 11:16:38;;;;;;;2.28;0.60;;;12.60;50.60;;;;;;4955504;29;20034;-85
2021/04/17 11:19:21;;;;;;;4.72;1.13;;;12.90;50.80;;;;;;4954470;29;20085;-85
2021/04/17 11:21:46;;;;;;;4.35;0.63;;;13.20;50.00;;;;;;4952923;29;20095;-87
2021/04/17 11:24:13;;;;;;;3.10;0.80;;;13.40;49.50;;;;;;4949007;29;20027;-85
2021/04/17 11:26:40;;;;;;;5.60;1.13;;;13.40;48.60;;;;;;4953331;28;20063;-86
2021/04/17 11:29:05;;;;;;;5.85;1.20;;;13.30;48.90;;;;;;4952830;29;20114;-86
2021/04/17 11:31:34;;;;;;;5.63;1.17;;;13.30;49.00;;;;;;4952480;29;20793;-86
2021/04/17 11:34:03;;;;;;;6.68;1.05;;;13.40;49.00;;;;;;4956686;28;20027;-86
2021/04/17 11:36:32;;;;;;;6.35;1.20;;;13.40;48.30;;;;;;4949237;28;20023;-85
2021/04/17 11:38:58;;;;;;;5.25;1.58;;;13.40;49.60;;;;;;4954067;28;20027;-86
2021/04/17 11:41:25;;;;;;;5.15;1.00;;;13.50;49.50;;;;;;4950114;28;20020;-86
2021/04/17 11:43:52;;;;;;;7.78;2.08;;;13.50;48.50;;;;;;4947829;28;20480;-85
2021/04/17 11:46:18;;;;;;;4.63;1.00;;;13.40;49.00;;;;;;4953046;29;20027;-85
2021/04/17 11:48:47;;;;;;;4.90;1.15;;;13.30;49.00;;;;;;4955712;28;20051;-85
2021/04/17 11:51:13;;;;;;;6.53;1.30;;;13.30;49.30;;;;;;4953792;29;20098;-86
2021/04/17 11:53:38;;;;;;;5.18;1.25;;;13.30;49.20;;;;;;4949769;28;20061;-86
2021/04/17 11:56:05;;;;;;;5.55;1.27;;;13.50;49.10;;;;;;4953575;29;20293;-91
2021/04/17 11:58:30;;;;;;;4.80;1.17;;;13.60;48.90;;;;;;4953076;29;20031;-85
2021/04/17 12:00:56;;;;;;;4.40;1.30;;;13.60;48.60;;;;;;4951008;28;20024;-86
2021/04/17 12:03:23;;;;;;;2.88;1.20;;;13.50;48.70;;;;;;4948174;29;20043;-85
2021/04/17 12:05:50;;;;;;;6.10;1.13;;;13.50;49.30;;;;;;4952841;29;20027;-85
2021/04/17 12:08:16;;;;;;;8.48;1.40;;;13.60;49.30;;;;;;4957168;29;20400;-85
2021/04/17 12:10:43;;;;;;;9.18;1.42;;;13.80;49.00;;;;;;4957956;28;20075;-86
2021/04/17 12:13:08;;;;;;;6.78;1.25;;;14.00;48.60;;;;;;4955475;29;20035;-86
2021/04/17 12:15:34;;;;;;;7.20;1.38;;;14.20;48.10;;;;;;4955483;29;20039;-86
2021/04/17 12:17:59;;;;;;;9.68;1.30;;;14.30;48.00;;;;;;4955288;28;20562;-86
2021/04/17 12:20:25;;;;;;;4.53;1.10;;;14.30;48.40;;;;;;4956631;29;20034;-87
2021/04/17 12:22:51;;;;;;;3.85;1.10;;;14.40;47.90;;;;;;4956814;29;20032;-86
2021/04/17 12:25:17;;;;;;;4.85;1.10;;;14.30;48.20;;;;;;4957128;29;20042;-86
2021/04/17 12:27:43;;;;;;;5.30;1.05;;;14.20;47.90;;;;;;4952412;29;20036;-86
2021/04/17 12:30:12;;;;;;;6.32;1.20;;;14.20;48.20;;;;;;4952421;29;20093;-86
2021/04/17 12:32:38;;;;;;;6.95;1.02;;;14.20;47.70;;;;;;4955419;29;20031;-86
2021/04/17 12:35:04;;;;;;;4.90;1.20;;;14.30;48.20;;;;;;4955570;28;20030;-86
2021/04/17 12:37:30;;;;;;;6.75;1.30;;;14.40;47.60;;;;;;4955655;29;20031;-87
2021/04/17 12:39:55;;;;;;;5.00;1.30;;;14.40;46.90;;;;;;4954488;29;20075;-86
2021/04/17 12:42:21;;;;;;;5.05;0.90;;;14.50;46.90;;;;;;4955362;29;20027;-86
2021/04/17 12:44:46;;;;;;;3.53;1.02;;;14.60;46.40;;;;;;4950852;28;20030;-86
2021/04/17 12:47:12;;;;;;;9.15;1.38;;;14.50;46.00;;;;;;4954999;28;20380;-86
2021/04/17 12:49:38;;;;;;;5.22;0.98;;;14.40;45.50;;;;;;4957463;29;20090;-86
2021/04/17 12:52:04;;;;;;;3.35;0.90;;;14.30;45.70;;;;;;4955079;28;20079;-86
2021/04/17 12:54:30;;;;;;;4.00;1.00;;;14.20;46.90;;;;;;4961333;28;20031;-86
2021/04/17 12:56:55;;;;;;;3.92;0.98;;;14.30;46.90;;;;;;4944241;29;20046;-86
2021/04/17 12:59:21;;;;;;;5.53;1.13;;;14.50;46.30;;;;;;4955512;29;20023;-86
2021/04/17 13:01:46;;;;;;;5.00;1.38;;;14.60;45.90;;;;;;4954398;29;20047;-85